Metar z połowy godziny Komunikat METAR ze strony awiacja.imgw.pl Metar G30 EPOK METAR EPOK 200930Z 14010KT CAVOK 25/19 Q1009 RMK 251 070 1/1 LTG DSNT NW=